createdAt,value
2018-06-29T00:00:11.596Z,18.84
2018-06-29T00:01:11.848Z,18.7
2018-06-29T00:02:11.842Z,18.75
2018-06-29T00:03:11.846Z,18.69
2018-06-29T00:04:11.845Z,18.75
2018-06-29T00:05:11.841Z,18.73
2018-06-29T00:06:11.834Z,18.73
2018-06-29T00:07:11.570Z,18.73
2018-06-29T00:08:11.831Z,18.7
2018-06-29T00:09:11.813Z,18.66
2018-06-29T00:10:11.562Z,18.63
2018-06-29T00:11:11.918Z,18.72
2018-06-29T00:12:11.809Z,18.63
2018-06-29T00:13:11.546Z,18.66
2018-06-29T00:14:11.550Z,18.72
2018-06-29T00:15:11.793Z,18.76
2018-06-29T00:16:12.041Z,18.65
2018-06-29T00:17:11.539Z,18.69
2018-06-29T00:18:11.780Z,18.72
2018-06-29T00:19:11.784Z,18.73
2018-06-29T00:20:11.522Z,18.66
2018-06-29T00:21:11.782Z,18.69
2018-06-29T00:22:11.764Z,18.67
2018-06-29T00:23:11.767Z,18.67
2018-06-29T00:24:11.758Z,18.6
2018-06-29T00:25:11.755Z,18.6
2018-06-29T00:26:11.513Z,18.57
2018-06-29T00:27:11.753Z,18.5
2018-06-29T00:28:11.743Z,18.5
2018-06-29T00:29:11.749Z,18.47
2018-06-29T00:30:11.487Z,18.44
2018-06-29T00:31:11.732Z,18.45
2018-06-29T00:32:11.478Z,18.42
2018-06-29T00:33:11.747Z,18.47
2018-06-29T00:34:11.722Z,18.37
2018-06-29T00:35:11.723Z,18.36
2018-06-29T00:36:11.720Z,18.44
2018-06-29T00:37:11.713Z,18.42
2018-06-29T00:38:11.705Z,18.41
2018-06-29T00:39:11.451Z,18.44
2018-06-29T00:40:11.698Z,18.39
2018-06-29T00:41:11.698Z,18.32
2018-06-29T00:42:11.706Z,18.37
2018-06-29T00:43:11.692Z,18.32
2018-06-29T00:44:11.432Z,18.35
2018-06-29T00:45:11.680Z,18.27
2018-06-29T00:46:11.681Z,18.32
2018-06-29T00:47:11.673Z,18.29
2018-06-29T00:48:11.671Z,18.27
2018-06-29T00:49:11.665Z,18.25
2018-06-29T00:50:11.665Z,18.21
2018-06-29T00:51:11.657Z,18.18
2018-06-29T00:52:11.657Z,18.15
2018-06-29T00:53:11.403Z,18.21
2018-06-29T00:54:11.652Z,18.2
2018-06-29T00:55:11.710Z,18.18
2018-06-29T00:56:11.391Z,18.17
2018-06-29T00:57:11.642Z,18.11
2018-06-29T00:58:11.638Z,18.08
2018-06-29T00:59:11.377Z,18.11
2018-06-29T01:00:11.635Z,18.11
2018-06-29T01:01:11.622Z,18.11
2018-06-29T01:02:11.365Z,18.07
2018-06-29T01:03:11.359Z,18.02
2018-06-29T01:04:11.614Z,18.1
2018-06-29T01:05:11.607Z,18.05
2018-06-29T01:06:11.349Z,18.1
2018-06-29T01:07:11.594Z,18
2018-06-29T01:08:11.708Z,18.1
2018-06-29T01:09:11.335Z,18.03
2018-06-29T01:10:11.588Z,17.95
2018-06-29T01:11:11.584Z,17.95
2018-06-29T01:12:11.323Z,17.87
2018-06-29T01:13:11.574Z,17.92
2018-06-29T01:14:11.568Z,17.86
2018-06-29T01:15:11.570Z,17.87
2018-06-29T01:16:11.566Z,17.77
2018-06-29T01:17:11.306Z,17.78
2018-06-29T01:18:11.554Z,17.84
2018-06-29T01:19:11.558Z,17.79
2018-06-29T01:20:11.543Z,17.78
2018-06-29T01:21:11.296Z,17.74
2018-06-29T01:22:11.287Z,17.78
2018-06-29T01:23:13.212Z,17.63
2018-06-29T01:24:11.529Z,17.68
2018-06-29T01:25:11.524Z,17.7
2018-06-29T01:26:11.267Z,17.71
2018-06-29T01:27:11.268Z,17.64
2018-06-29T01:28:11.511Z,17.66
2018-06-29T01:29:11.509Z,17.59
2018-06-29T01:30:11.510Z,17.58
2018-06-29T01:31:11.500Z,17.63
2018-06-29T01:32:11.502Z,17.63
2018-06-29T01:33:11.532Z,17.62
2018-06-29T01:34:11.486Z,17.64
2018-06-29T01:35:11.478Z,17.63
2018-06-29T01:36:11.476Z,17.55
2018-06-29T01:37:11.226Z,17.54
2018-06-29T01:38:11.471Z,17.63
2018-06-29T01:39:11.464Z,17.63
2018-06-29T01:40:11.531Z,17.56
2018-06-29T01:41:11.457Z,17.52
2018-06-29T01:42:11.198Z,17.51
2018-06-29T01:43:11.458Z,17.48
2018-06-29T01:44:11.195Z,17.55
2018-06-29T01:45:11.441Z,17.51
2018-06-29T01:46:11.439Z,17.48
2018-06-29T01:47:11.429Z,17.49
2018-06-29T01:48:11.425Z,17.54
2018-06-29T01:49:11.191Z,17.48
2018-06-29T01:50:11.163Z,17.46
2018-06-29T01:51:11.419Z,17.51
2018-06-29T01:52:11.497Z,17.55
2018-06-29T01:53:11.414Z,17.36
2018-06-29T01:54:11.401Z,17.44
2018-06-29T01:55:11.432Z,17.46
2018-06-29T01:56:11.141Z,17.55
2018-06-29T01:57:11.136Z,17.59
2018-06-29T01:58:11.386Z,17.52
2018-06-29T01:59:11.381Z,17.55
2018-06-29T02:00:11.379Z,17.51
2018-06-29T02:01:11.117Z,17.46
2018-06-29T02:02:11.112Z,17.54
2018-06-29T02:03:10.859Z,17.54
2018-06-29T02:04:11.355Z,17.52
2018-06-29T02:05:11.353Z,17.46
2018-06-29T02:06:11.098Z,17.48
2018-06-29T02:07:11.348Z,17.55
2018-06-29T02:08:11.609Z,17.52
2018-06-29T02:09:11.338Z,17.48
2018-06-29T02:10:11.333Z,17.51
2018-06-29T02:11:11.327Z,17.44
2018-06-29T02:12:10.817Z,17.51
2018-06-29T02:13:11.070Z,17.52
2018-06-29T02:14:11.318Z,17.44
2018-06-29T02:15:11.308Z,17.38
2018-06-29T02:16:11.306Z,17.52
2018-06-29T02:17:11.300Z,17.41
2018-06-29T02:18:10.792Z,17.4
2018-06-29T02:19:11.298Z,17.41
2018-06-29T02:20:11.290Z,17.41
2018-06-29T02:21:11.284Z,17.36
2018-06-29T02:22:11.278Z,17.36
2018-06-29T02:23:11.022Z,17.41
2018-06-29T02:24:11.283Z,17.28
2018-06-29T02:25:11.281Z,17.28
2018-06-29T02:26:11.265Z,17.36
2018-06-29T02:27:11.006Z,17.34
2018-06-29T02:28:11.251Z,17.21
2018-06-29T02:29:11.336Z,17.3
2018-06-29T02:30:11.250Z,17.3
2018-06-29T02:31:11.240Z,17.34
2018-06-29T02:32:10.736Z,17.3
2018-06-29T02:33:10.990Z,17.26
2018-06-29T02:34:11.231Z,17.22
2018-06-29T02:35:11.233Z,17.23
2018-06-29T02:36:10.715Z,17.25
2018-06-29T02:37:10.975Z,17.21
2018-06-29T02:38:10.728Z,17.18
2018-06-29T02:39:11.214Z,17.21
2018-06-29T02:40:10.959Z,17.12
2018-06-29T02:41:11.202Z,17.19
2018-06-29T02:42:11.192Z,17.16
2018-06-29T02:43:11.205Z,17.18
2018-06-29T02:44:11.186Z,17.14
2018-06-29T02:45:10.931Z,17.22
2018-06-29T02:46:11.174Z,17.11
2018-06-29T02:47:10.916Z,17.14
2018-06-29T02:48:11.173Z,17.08
2018-06-29T02:49:11.166Z,17.14
2018-06-29T02:50:10.654Z,17.07
2018-06-29T02:51:11.157Z,17.21
2018-06-29T02:52:11.150Z,17.12
2018-06-29T02:53:10.639Z,17.11
2018-06-29T02:54:11.142Z,17.12
2018-06-29T02:55:10.881Z,17.16
2018-06-29T02:56:11.148Z,17.12
2018-06-29T02:57:11.130Z,17.15
2018-06-29T02:58:11.125Z,17.07
2018-06-29T02:59:10.863Z,17.21
2018-06-29T03:00:10.861Z,17.26
2018-06-29T03:01:11.121Z,17.21
2018-06-29T03:02:10.599Z,17.11
2018-06-29T03:03:10.596Z,17.16
2018-06-29T03:04:11.109Z,17.25
2018-06-29T03:05:11.092Z,17.18
2018-06-29T03:06:11.083Z,17.06
2018-06-29T03:07:10.827Z,17.19
2018-06-29T03:08:11.078Z,17.07
2018-06-29T03:09:10.825Z,17.23
2018-06-29T03:10:10.812Z,17.14
2018-06-29T03:11:11.077Z,17.14
2018-06-29T03:12:10.860Z,17.15
2018-06-29T03:13:10.803Z,17.25
2018-06-29T03:14:10.794Z,17.25
2018-06-29T03:15:10.792Z,17.28
2018-06-29T03:16:11.039Z,17.23
2018-06-29T03:17:10.785Z,17.3
2018-06-29T03:18:11.039Z,17.3
2018-06-29T03:19:11.025Z,17.33
2018-06-29T03:20:10.774Z,17.3
2018-06-29T03:21:11.020Z,17.33
2018-06-29T03:22:11.027Z,17.37
2018-06-29T03:23:11.263Z,17.4
2018-06-29T03:24:11.006Z,17.41
2018-06-29T03:25:11.194Z,17.44
2018-06-29T03:26:10.745Z,17.51
2018-06-29T03:27:10.989Z,17.64
2018-06-29T03:28:10.985Z,17.78
2018-06-29T03:29:10.987Z,17.86
2018-06-29T03:30:10.737Z,17.87
2018-06-29T03:31:10.721Z,18
2018-06-29T03:32:10.718Z,18.12
2018-06-29T03:33:11.212Z,18.2
2018-06-29T03:34:10.714Z,18.33
2018-06-29T03:35:10.708Z,18.33
2018-06-29T03:36:10.966Z,18.39
2018-06-29T03:37:10.705Z,18.44
2018-06-29T03:38:10.692Z,18.54
2018-06-29T03:39:10.688Z,18.72
2018-06-29T03:40:10.723Z,18.78
2018-06-29T03:41:10.936Z,18.91
2018-06-29T03:42:10.680Z,19.11
2018-06-29T03:43:10.936Z,19.14
2018-06-29T03:44:10.674Z,19.28
2018-06-29T03:45:10.925Z,19.36
2018-06-29T03:46:10.667Z,19.43
2018-06-29T03:47:10.917Z,19.59
2018-06-29T03:48:10.986Z,19.74
2018-06-29T03:49:10.666Z,19.78
2018-06-29T03:50:10.915Z,19.98
2018-06-29T03:51:10.658Z,20.06
2018-06-29T03:52:10.923Z,20.14
2018-06-29T03:53:10.902Z,20.29
2018-06-29T03:54:10.647Z,20.39
2018-06-29T03:55:10.647Z,20.54
2018-06-29T03:56:10.898Z,20.59
2018-06-29T03:57:10.896Z,20.82
2018-06-29T03:58:10.642Z,21.07
2018-06-29T03:59:10.641Z,21.12
2018-06-29T04:00:10.893Z,21.25
2018-06-29T04:01:10.913Z,21.38
2018-06-29T04:02:10.643Z,21.58
2018-06-29T04:03:10.642Z,21.74
2018-06-29T04:04:10.889Z,22.06
2018-06-29T04:05:10.892Z,22.24
2018-06-29T04:06:10.919Z,22.45
2018-06-29T04:07:10.382Z,22.67
2018-06-29T04:08:10.888Z,22.82
2018-06-29T04:09:10.888Z,22.9
2018-06-29T04:10:10.641Z,23.04
2018-06-29T04:11:10.636Z,23.2
2018-06-29T04:12:10.898Z,23.31
2018-06-29T04:13:10.889Z,23.4
2018-06-29T04:14:10.645Z,23.5
2018-06-29T04:15:10.891Z,23.73
2018-06-29T04:16:10.899Z,23.97
2018-06-29T04:17:10.893Z,24.16
2018-06-29T04:18:10.895Z,24.34
2018-06-29T04:19:10.903Z,24.5
2018-06-29T04:20:10.898Z,24.55
2018-06-29T04:21:10.648Z,24.6
2018-06-29T04:22:10.902Z,24.83
2018-06-29T04:23:10.905Z,24.95
2018-06-29T04:24:10.914Z,24.87
2018-06-29T04:25:10.909Z,24.9
2018-06-29T04:26:10.919Z,25.05
2018-06-29T04:27:10.932Z,25.21
2018-06-29T04:28:10.921Z,25.32
2018-06-29T04:29:10.928Z,25.32
2018-06-29T04:30:10.929Z,25.35
2018-06-29T04:31:10.939Z,25.51
2018-06-29T04:32:10.935Z,25.62
2018-06-29T04:33:10.687Z,25.58
2018-06-29T04:34:10.946Z,25.58
2018-06-29T04:35:10.947Z,25.64
2018-06-29T04:36:10.960Z,25.79
2018-06-29T04:37:10.708Z,25.97
2018-06-29T04:38:10.961Z,25.97
2018-06-29T04:39:10.966Z,25.9
2018-06-29T04:40:10.721Z,25.98
2018-06-29T04:41:10.723Z,26.1
2018-06-29T04:42:10.984Z,26.28
2018-06-29T04:43:10.993Z,26.26
2018-06-29T04:44:10.744Z,26.33
2018-06-29T04:45:10.749Z,26.2
2018-06-29T04:46:11.002Z,26.25
2018-06-29T04:47:11.006Z,26.25
2018-06-29T04:48:10.761Z,26.26
2018-06-29T04:49:10.780Z,26.29
2018-06-29T04:50:11.026Z,26.39
2018-06-29T04:51:11.034Z,26.39
2018-06-29T04:52:10.792Z,26.5
2018-06-29T04:53:10.795Z,26.65
2018-06-29T04:54:11.049Z,26.8
2018-06-29T04:55:11.063Z,26.92
2018-06-29T04:56:11.312Z,27.14
2018-06-29T04:57:10.814Z,27.25
2018-06-29T04:58:11.082Z,27.4
2018-06-29T04:59:11.129Z,27.59
2018-06-29T05:00:10.585Z,27.75
2018-06-29T05:01:11.104Z,27.72
2018-06-29T05:02:10.855Z,27.84
2018-06-29T05:03:11.125Z,27.97
2018-06-29T05:04:11.125Z,28.17
2018-06-29T05:05:10.885Z,28.43
2018-06-29T05:06:11.132Z,28.62
2018-06-29T05:07:10.887Z,28.85
2018-06-29T05:08:11.148Z,29.24
2018-06-29T05:09:11.152Z,29.7
2018-06-29T05:10:10.909Z,29.95
2018-06-29T05:11:11.169Z,30.08
2018-06-29T05:12:11.176Z,30.07
2018-06-29T05:13:10.933Z,30.34
2018-06-29T05:14:10.941Z,30.47
2018-06-29T05:15:11.214Z,30.49
2018-06-29T05:16:10.959Z,30.54
2018-06-29T05:17:11.224Z,30.49
2018-06-29T05:18:11.230Z,30.47
2018-06-29T05:19:11.240Z,30.51
2018-06-29T05:20:11.247Z,30.42
2018-06-29T05:21:11.013Z,30.07
2018-06-29T05:22:11.269Z,30.04
2018-06-29T05:23:11.281Z,30.02
2018-06-29T05:24:11.283Z,30.1
2018-06-29T05:25:11.042Z,30.1
2018-06-29T05:26:11.317Z,29.94
2018-06-29T05:27:11.381Z,29.92
2018-06-29T05:28:11.324Z,29.97
2018-06-29T05:29:11.332Z,30.11
2018-06-29T05:30:11.092Z,30.16
2018-06-29T05:31:11.102Z,30.13
2018-06-29T05:32:11.357Z,30.22
2018-06-29T05:33:11.369Z,30.15
2018-06-29T05:34:10.907Z,30.01
2018-06-29T05:35:11.394Z,30.17
2018-06-29T05:36:11.403Z,30.34
2018-06-29T05:37:11.414Z,30.53
2018-06-29T05:38:11.417Z,30.55
2018-06-29T05:39:11.432Z,30.54
2018-06-29T05:40:11.445Z,30.69
2018-06-29T05:41:11.451Z,30.86
2018-06-29T05:42:11.210Z,30.97
2018-06-29T05:43:10.969Z,31.16
2018-06-29T05:44:11.227Z,31.44
2018-06-29T05:45:11.499Z,31.5
2018-06-29T05:46:11.336Z,31.7
2018-06-29T05:47:11.528Z,31.72
2018-06-29T05:48:11.534Z,31.78
2018-06-29T05:49:11.557Z,31.73
2018-06-29T05:50:11.298Z,32.04
2018-06-29T05:51:11.306Z,32.11
2018-06-29T05:52:11.312Z,32.37
2018-06-29T05:53:12.186Z,32.43
2018-06-29T05:54:11.598Z,32.52
2018-06-29T05:55:11.604Z,32.52
2018-06-29T05:56:11.614Z,32.45
2018-06-29T05:57:11.372Z,32.47
2018-06-29T05:58:11.640Z,32.4
2018-06-29T05:59:11.645Z,32.18
2018-06-29T06:00:11.410Z,31.85
2018-06-29T06:01:11.668Z,31.65
2018-06-29T06:02:11.962Z,31.53
2018-06-29T06:03:11.710Z,31.41
2018-06-29T06:04:11.454Z,31.44
2018-06-29T06:05:11.717Z,31.51
2018-06-29T06:06:11.728Z,32
2018-06-29T06:07:11.746Z,32.26
2018-06-29T06:08:11.762Z,32.66
2018-06-29T06:09:11.526Z,33.14
2018-06-29T06:10:11.334Z,33.34
2018-06-29T06:11:11.539Z,33.14
2018-06-29T06:12:11.814Z,33.18
2018-06-29T06:13:11.832Z,33.34
2018-06-29T06:14:11.577Z,33.37
2018-06-29T06:15:11.846Z,33.51
2018-06-29T06:16:12.210Z,33.82
2018-06-29T06:17:11.864Z,34.06
2018-06-29T06:18:11.895Z,34.42
2018-06-29T06:19:11.896Z,34.53
2018-06-29T06:20:11.908Z,34.56
2018-06-29T06:21:11.926Z,34.72
2018-06-29T06:22:11.691Z,34.77
2018-06-29T06:23:11.945Z,35.07
2018-06-29T06:24:11.708Z,35.55
2018-06-29T06:25:12.067Z,35.89
2018-06-29T06:26:11.995Z,36.2
2018-06-29T06:27:11.751Z,36.49
2018-06-29T06:28:11.769Z,36.69
2018-06-29T06:29:12.031Z,36.76
2018-06-29T06:30:12.055Z,37.03
2018-06-29T06:32:12.085Z,37.59
2018-06-29T06:33:11.919Z,37.88
2018-06-29T06:34:11.877Z,38.28
2018-06-29T06:35:12.127Z,38.4
2018-06-29T06:36:12.164Z,38.41
2018-06-29T06:37:12.160Z,38.22
2018-06-29T06:38:12.223Z,37.79
2018-06-29T06:39:12.192Z,37.41
2018-06-29T06:40:12.217Z,37.22
2018-06-29T06:41:12.238Z,37.17
2018-06-29T06:42:12.247Z,37.31
2018-06-29T06:43:12.264Z,37.49
2018-06-29T06:44:12.028Z,37.46
2018-06-29T06:45:12.046Z,37.44
2018-06-29T06:46:12.064Z,37.49
2018-06-29T06:47:12.350Z,37.75
2018-06-29T06:48:12.352Z,38.11
2018-06-29T06:49:12.380Z,38.09
2018-06-29T06:50:12.394Z,38.04
2018-06-29T06:51:12.413Z,37.69
2018-06-29T06:52:12.425Z,37.46
2018-06-29T06:53:12.459Z,37.31
2018-06-29T06:54:12.205Z,37.37
2018-06-29T06:55:12.231Z,37.7
2018-06-29T06:56:12.501Z,37.84
2018-06-29T06:57:12.519Z,37.84
2018-06-29T06:58:12.282Z,37.72
2018-06-29T06:59:12.301Z,37.55
2018-06-29T07:00:12.590Z,37.31
2018-06-29T07:01:12.592Z,37.47
2018-06-29T07:02:12.613Z,37.46
2018-06-29T07:03:12.376Z,37.6
2018-06-29T07:04:12.395Z,37.64
2018-06-29T07:05:12.695Z,37.91
2018-06-29T07:06:12.680Z,38.22
2018-06-29T07:07:12.702Z,38.2
2018-06-29T07:08:12.472Z,38.04
2018-06-29T07:09:12.757Z,37.93
2018-06-29T07:10:12.795Z,37.86
2018-06-29T07:11:12.525Z,37.94
2018-06-29T07:12:12.792Z,37.89
2018-06-29T07:13:12.559Z,37.98
2018-06-29T07:14:12.612Z,38.09
2018-06-29T07:15:12.849Z,37.7
2018-06-29T07:16:12.864Z,37.29
2018-06-29T07:17:12.887Z,36.87
2018-06-29T07:18:13.003Z,36.78
2018-06-29T07:19:12.941Z,36.69
2018-06-29T07:20:12.987Z,36.85
2018-06-29T07:21:12.959Z,37.02
2018-06-29T07:22:12.977Z,37.24
2018-06-29T07:23:12.993Z,37.5
2018-06-29T07:24:13.019Z,37.5
2018-06-29T07:25:12.783Z,37.46
2018-06-29T07:26:13.057Z,37.44
2018-06-29T07:27:12.824Z,37.24
2018-06-29T07:28:12.858Z,37.2
2018-06-29T07:29:13.137Z,37.31
2018-06-29T07:30:13.240Z,37.5
2018-06-29T07:31:13.146Z,37.67
2018-06-29T07:32:13.423Z,37.72
2018-06-29T07:33:13.184Z,37.55
2018-06-29T07:34:13.213Z,37.05
2018-06-29T07:35:13.235Z,36.85
2018-06-29T07:36:13.244Z,36.72
2018-06-29T07:37:13.273Z,36.73
2018-06-29T07:38:13.281Z,36.91
2018-06-29T07:39:13.317Z,37.03
2018-06-29T07:40:13.327Z,37.31
2018-06-29T07:41:13.548Z,37.51
2018-06-29T07:42:13.100Z,38.13
2018-06-29T07:43:13.395Z,38.4
2018-06-29T07:44:12.885Z,38.37
2018-06-29T07:45:13.412Z,38.31
2018-06-29T07:46:13.439Z,38.35
2018-06-29T07:47:13.504Z,38.37
2018-06-29T07:48:13.470Z,38.07
2018-06-29T07:49:13.487Z,37.76
2018-06-29T07:50:13.525Z,37.7
2018-06-29T07:51:13.277Z,37.4
2018-06-29T07:52:13.543Z,37.1
2018-06-29T07:53:13.586Z,36.78
2018-06-29T07:54:13.326Z,36.69
2018-06-29T07:55:13.597Z,36.66
2018-06-29T07:56:13.512Z,36.5
2018-06-29T07:57:13.773Z,36.39
2018-06-29T07:58:14.085Z,36.25
2018-06-29T07:59:13.674Z,36.01
2018-06-29T08:00:13.441Z,35.97
2018-06-29T08:01:13.707Z,35.9
2018-06-29T08:02:13.793Z,35.65
2018-06-29T08:03:13.987Z,35.55
2018-06-29T08:04:13.249Z,35.5
2018-06-29T08:05:13.773Z,35.45
2018-06-29T08:06:13.534Z,35.59
2018-06-29T08:07:13.809Z,35.45
2018-06-29T08:08:13.822Z,35.28
2018-06-29T08:09:13.837Z,34.88
2018-06-29T08:10:13.850Z,34.5
2018-06-29T08:11:13.870Z,34.42
2018-06-29T08:12:13.634Z,34.53
2018-06-29T08:13:13.645Z,34.69
2018-06-29T08:14:13.920Z,34.59
2018-06-29T08:15:13.676Z,34.5
2018-06-29T08:16:13.943Z,34.46
2018-06-29T08:17:13.963Z,34.47
2018-06-29T08:18:14.000Z,34.5
2018-06-29T08:19:13.740Z,34.44
2018-06-29T08:20:13.522Z,34.27
2018-06-29T08:21:13.766Z,34.17
2018-06-29T08:22:14.036Z,33.93
2018-06-29T08:23:13.544Z,33.91
2018-06-29T08:24:14.120Z,34.02
2018-06-29T08:25:13.825Z,34.06
2018-06-29T08:26:14.109Z,33.98
2018-06-29T08:27:13.605Z,33.94
2018-06-29T08:28:14.133Z,33.86
2018-06-29T08:29:13.887Z,33.87
2018-06-29T08:30:14.154Z,33.79
2018-06-29T08:31:14.184Z,33.63
2018-06-29T08:32:14.186Z,33.63
2018-06-29T08:33:14.201Z,33.63
2018-06-29T08:34:14.481Z,33.75
2018-06-29T08:35:14.231Z,33.9
2018-06-29T08:36:13.996Z,34.1
2018-06-29T08:37:14.006Z,34.13
2018-06-29T08:38:14.480Z,34.19
2018-06-29T08:39:14.504Z,34.16
2018-06-29T08:40:14.059Z,34.19
2018-06-29T08:41:14.319Z,34.39
2018-06-29T08:42:14.084Z,34.54
2018-06-29T08:43:14.359Z,34.75
2018-06-29T08:44:14.549Z,34.82
2018-06-29T08:45:14.388Z,34.66
2018-06-29T08:46:14.399Z,34.7
2018-06-29T08:47:14.757Z,34.69
2018-06-29T08:48:14.451Z,34.77
2018-06-29T08:49:14.465Z,34.58
2018-06-29T08:50:14.488Z,34.3
2018-06-29T08:51:14.477Z,34.16
2018-06-29T08:52:14.792Z,33.91
2018-06-29T08:53:15.001Z,33.81
2018-06-29T08:54:14.297Z,33.66
2018-06-29T08:55:14.628Z,33.57
2018-06-29T08:56:14.560Z,33.63
2018-06-29T08:57:14.559Z,33.61
2018-06-29T08:58:14.577Z,33.5
2018-06-29T08:59:14.595Z,33.37
2018-06-29T09:00:14.351Z,33.31
2018-06-29T09:01:14.624Z,33.37
2018-06-29T09:02:14.633Z,33.35
2018-06-29T09:03:14.642Z,33.21
2018-06-29T09:04:14.658Z,32.92
2018-06-29T09:05:14.924Z,32.7
2018-06-29T09:06:14.452Z,32.14
2018-06-29T09:07:14.446Z,31.86
2018-06-29T09:08:14.658Z,31.5
2018-06-29T09:09:14.465Z,31.32
2018-06-29T09:10:14.763Z,31.09
2018-06-29T09:11:14.494Z,30.89
2018-06-29T09:12:14.547Z,30.7
2018-06-29T09:13:14.519Z,30.49
2018-06-29T09:14:14.525Z,30.45
2018-06-29T09:15:14.782Z,30.49
2018-06-29T09:16:14.798Z,30.24
2018-06-29T09:17:14.550Z,30.11
2018-06-29T09:18:14.807Z,30.13
2018-06-29T09:19:14.969Z,30.04
2018-06-29T09:20:14.832Z,29.85
2018-06-29T09:21:14.856Z,29.73
2018-06-29T09:22:14.842Z,29.65
2018-06-29T09:23:14.603Z,29.65
2018-06-29T09:24:14.866Z,29.46
2018-06-29T09:25:14.624Z,29.48
2018-06-29T09:26:14.644Z,29.42
2018-06-29T09:27:27.613Z,29.36
2018-06-29T09:28:14.889Z,29.31
2018-06-29T09:29:14.893Z,29.31
2018-06-29T09:30:14.906Z,29.21
2018-06-29T09:31:14.928Z,29.14
2018-06-29T09:32:14.925Z,29.14
2018-06-29T09:33:14.687Z,29.02
2018-06-29T09:34:14.674Z,28.98
2018-06-29T09:35:14.944Z,29
2018-06-29T09:36:15.272Z,28.95
2018-06-29T09:37:14.945Z,28.88
2018-06-29T09:38:14.443Z,28.9
2018-06-29T09:39:14.961Z,28.92
2018-06-29T09:40:14.712Z,28.78
2018-06-29T09:41:14.963Z,28.7
2018-06-29T09:42:14.971Z,28.64
2018-06-29T09:43:14.990Z,28.55
2018-06-29T09:44:14.988Z,28.55
2018-06-29T09:45:14.984Z,28.56
2018-06-29T09:46:14.741Z,28.64
2018-06-29T09:47:15.006Z,28.64
2018-06-29T09:48:15.203Z,28.74
2018-06-29T09:49:15.052Z,28.8
2018-06-29T09:50:15.033Z,28.83
2018-06-29T09:51:15.015Z,28.83
2018-06-29T09:52:27.502Z,28.76
2018-06-29T09:53:15.031Z,28.78
2018-06-29T09:54:15.032Z,28.88
2018-06-29T09:55:15.032Z,28.96
2018-06-29T09:56:14.815Z,29
2018-06-29T09:57:15.047Z,28.96
2018-06-29T09:58:15.060Z,29.05
2018-06-29T09:59:15.065Z,28.96
2018-06-29T10:00:14.804Z,29
2018-06-29T10:01:15.385Z,29.12
2018-06-29T10:02:15.063Z,29.09
2018-06-29T10:03:15.071Z,29.24
2018-06-29T10:04:14.826Z,29.36
2018-06-29T10:05:15.079Z,29.55
2018-06-29T10:06:14.831Z,29.73
2018-06-29T10:07:15.346Z,29.67
2018-06-29T10:08:15.104Z,29.85
2018-06-29T10:09:15.106Z,29.9
2018-06-29T10:10:15.103Z,29.95
2018-06-29T10:11:14.858Z,30.11
2018-06-29T10:12:14.870Z,30.07
2018-06-29T10:13:15.155Z,30.05
2018-06-29T10:14:15.280Z,30.15
2018-06-29T10:15:15.133Z,30.02
2018-06-29T10:16:27.872Z,30.16
2018-06-29T10:17:15.144Z,30.15
2018-06-29T10:18:15.150Z,30.01
2018-06-29T10:19:15.161Z,30.11
2018-06-29T10:20:15.626Z,30.19
2018-06-29T10:21:14.923Z,30.01
2018-06-29T10:22:15.519Z,30.04
2018-06-29T10:23:14.930Z,30.04
2018-06-29T10:24:15.304Z,30.08
2018-06-29T10:25:15.333Z,30.07
2018-06-29T10:26:15.223Z,29.92
2018-06-29T10:27:15.227Z,29.89
2018-06-29T10:28:15.765Z,29.7
2018-06-29T10:29:15.218Z,29.63
2018-06-29T10:30:22.220Z,29.68
2018-06-29T10:31:17.715Z,29.67
2018-06-29T10:32:15.259Z,29.68
2018-06-29T10:33:15.242Z,29.7
2018-06-29T10:34:15.247Z,29.8
2018-06-29T10:35:15.257Z,29.83
2018-06-29T10:36:15.275Z,29.94
2018-06-29T10:37:15.265Z,29.92
2018-06-29T10:38:15.287Z,29.94
2018-06-29T10:39:14.765Z,30.01
2018-06-29T10:40:15.030Z,30.16
2018-06-29T10:41:15.282Z,30.19
2018-06-29T10:42:15.301Z,30.31
2018-06-29T10:43:14.788Z,30.53
2018-06-29T10:44:15.302Z,30.47
2018-06-29T10:45:15.309Z,30.47
2018-06-29T10:46:15.326Z,30.47
2018-06-29T10:47:15.319Z,30.39
2018-06-29T10:48:15.069Z,30.23
2018-06-29T10:49:15.328Z,30.16
2018-06-29T10:50:15.078Z,30.01
2018-06-29T10:51:14.835Z,30.08
2018-06-29T10:52:15.356Z,30.07
2018-06-29T10:53:15.364Z,30.05
2018-06-29T10:54:15.381Z,30.19
2018-06-29T10:55:15.113Z,30.32
2018-06-29T10:56:15.387Z,30.37
2018-06-29T10:57:15.379Z,30.27
2018-06-29T10:58:15.412Z,30.05
2018-06-29T10:59:15.389Z,30.07
2018-06-29T11:00:14.892Z,30
2018-06-29T11:01:15.397Z,29.87
2018-06-29T11:02:15.413Z,29.92
2018-06-29T11:03:15.407Z,29.79
2018-06-29T11:04:15.441Z,29.74
2018-06-29T11:05:15.417Z,29.73
2018-06-29T11:06:15.434Z,29.7
2018-06-29T11:07:15.188Z,29.76
2018-06-29T11:08:15.449Z,29.7
2018-06-29T11:09:15.450Z,29.65
2018-06-29T11:10:14.954Z,29.73
2018-06-29T11:11:15.211Z,29.7
2018-06-29T11:12:15.462Z,29.8
2018-06-29T11:13:15.466Z,29.79
2018-06-29T11:14:15.685Z,29.9
2018-06-29T11:15:15.479Z,30.05
2018-06-29T11:16:15.482Z,30.05
2018-06-29T11:17:15.488Z,30.27
2018-06-29T11:18:15.239Z,30.37
2018-06-29T11:19:15.247Z,30.46
2018-06-29T11:20:15.510Z,30.29
2018-06-29T11:21:15.518Z,30.24
2018-06-29T11:22:15.532Z,30.17
2018-06-29T11:23:15.529Z,30.15
2018-06-29T11:24:15.027Z,30.13
2018-06-29T11:25:15.530Z,30.15
2018-06-29T11:26:15.281Z,30.04
2018-06-29T11:27:15.538Z,30.13
2018-06-29T11:28:15.561Z,30.07
2018-06-29T11:29:15.550Z,30.08
2018-06-29T11:30:15.676Z,30.19
2018-06-29T11:31:15.600Z,30.2
2018-06-29T11:32:15.322Z,30.37
2018-06-29T11:33:15.575Z,30.38
2018-06-29T11:34:15.579Z,30.46
2018-06-29T11:35:15.591Z,30.42
2018-06-29T11:36:15.612Z,30.39
2018-06-29T11:37:15.372Z,30.43
2018-06-29T11:38:15.610Z,30.45
2018-06-29T11:39:15.361Z,30.47
2018-06-29T11:40:15.361Z,30.42
2018-06-29T11:41:15.371Z,30.49
2018-06-29T11:42:15.627Z,30.51
2018-06-29T11:43:15.635Z,30.57
2018-06-29T11:44:15.558Z,30.72
2018-06-29T11:45:15.645Z,30.97
2018-06-29T11:46:15.855Z,31.09
2018-06-29T11:47:15.661Z,31.19
2018-06-29T11:48:15.418Z,31.26
2018-06-29T11:49:15.680Z,31.31
2018-06-29T11:50:15.679Z,31.32
2018-06-29T11:51:15.424Z,31.26
2018-06-29T11:52:15.431Z,31.32
2018-06-29T11:53:15.687Z,31.31
2018-06-29T11:54:15.700Z,31.21
2018-06-29T11:55:15.702Z,31.23
2018-06-29T11:56:15.717Z,31.19
2018-06-29T11:57:15.729Z,31.21
2018-06-29T11:58:15.735Z,31.26
2018-06-29T11:59:15.478Z,31.2
2018-06-29T12:00:15.738Z,31.13
2018-06-29T12:01:15.495Z,31.16
2018-06-29T12:02:15.753Z,31.14
2018-06-29T12:03:15.757Z,31.19
2018-06-29T12:04:15.769Z,31.13
2018-06-29T12:05:15.769Z,31.09
2018-06-29T12:06:15.535Z,31.17
2018-06-29T12:07:16.009Z,31.21
2018-06-29T12:08:15.791Z,31.19
2018-06-29T12:09:15.803Z,31.21
2018-06-29T12:10:15.804Z,31.16
2018-06-29T12:11:15.821Z,31.1
2018-06-29T12:12:15.907Z,30.98
2018-06-29T12:13:15.580Z,31.01
2018-06-29T12:14:15.830Z,30.97
2018-06-29T12:15:15.841Z,30.99
2018-06-29T12:16:15.845Z,31.01
2018-06-29T12:17:15.598Z,31.06
2018-06-29T12:18:15.371Z,31.07
2018-06-29T12:19:15.636Z,31.09
2018-06-29T12:20:15.883Z,31.13
2018-06-29T12:21:15.921Z,31.19
2018-06-29T12:22:15.882Z,31.29
2018-06-29T12:23:15.930Z,31.38
2018-06-29T12:24:15.648Z,31.43
2018-06-29T12:25:15.899Z,31.35
2018-06-29T12:26:15.913Z,31.32
2018-06-29T12:27:15.670Z,31.25
2018-06-29T12:28:15.948Z,31.23
2018-06-29T12:29:15.674Z,31.1
2018-06-29T12:30:15.930Z,30.99
2018-06-29T12:31:15.684Z,30.94
2018-06-29T12:32:15.692Z,30.88
2018-06-29T12:33:15.946Z,30.82
2018-06-29T12:34:15.961Z,30.62
2018-06-29T12:35:15.976Z,30.49
2018-06-29T12:36:15.965Z,30.49
2018-06-29T12:37:15.731Z,30.35
2018-06-29T12:38:15.978Z,30.31
2018-06-29T12:39:15.987Z,30.2
2018-06-29T12:40:16.019Z,30.23
2018-06-29T12:41:16.202Z,30.27
2018-06-29T12:42:15.759Z,30.35
2018-06-29T12:43:15.765Z,30.27
2018-06-29T12:44:16.012Z,30.2
2018-06-29T12:45:16.027Z,30.26
2018-06-29T12:46:15.838Z,30.15
2018-06-29T12:47:16.033Z,30.13
2018-06-29T12:48:16.052Z,30.1
2018-06-29T12:49:16.065Z,29.89
2018-06-29T12:50:16.061Z,30.1
2018-06-29T12:51:16.052Z,30
2018-06-29T12:52:16.075Z,30.08
2018-06-29T12:53:16.092Z,30.02
2018-06-29T12:54:15.830Z,30.15
2018-06-29T12:55:16.110Z,30.02
2018-06-29T12:56:16.077Z,30.1
2018-06-29T12:57:16.235Z,30.04